createdAt,value
2017-12-24T00:00:59.661Z,2.17
2017-12-24T00:04:23.129Z,2.67
2017-12-24T00:07:48.115Z,2.37
2017-12-24T00:11:11.733Z,3.60
2017-12-24T00:14:35.975Z,1.70
2017-12-24T00:17:59.453Z,2.57
2017-12-24T00:21:22.903Z,2.00
2017-12-24T00:24:46.413Z,2.50
2017-12-24T00:28:09.911Z,4.20
2017-12-24T00:31:33.484Z,2.20
2017-12-24T00:34:56.978Z,2.20
2017-12-24T00:38:20.462Z,2.60
2017-12-24T00:41:43.951Z,2.50
2017-12-24T00:45:07.436Z,2.43
2017-12-24T00:48:30.882Z,2.07
2017-12-24T00:51:54.378Z,2.10
2017-12-24T00:55:17.835Z,3.13
2017-12-24T00:58:41.338Z,1.80
2017-12-24T01:02:04.919Z,1.67
2017-12-24T01:05:28.383Z,2.20
2017-12-24T01:08:51.896Z,2.13
2017-12-24T01:12:15.497Z,1.97
2017-12-24T01:15:38.946Z,1.83
2017-12-24T01:19:02.436Z,2.90
2017-12-24T01:22:25.923Z,1.90
2017-12-24T01:25:49.368Z,1.63
2017-12-24T01:29:12.845Z,1.60
2017-12-24T01:32:36.294Z,1.23
2017-12-24T01:35:59.877Z,1.43
2017-12-24T01:39:23.371Z,2.07
2017-12-24T01:42:46.876Z,2.40
2017-12-24T01:46:10.346Z,2.40
2017-12-24T01:49:33.821Z,1.50
2017-12-24T01:52:57.260Z,1.80
2017-12-24T01:56:20.801Z,1.60
2017-12-24T01:59:44.262Z,1.83
2017-12-24T02:03:07.748Z,1.50
2017-12-24T02:06:31.320Z,1.10
2017-12-24T02:09:54.769Z,1.20
2017-12-24T02:13:19.025Z,1.47
2017-12-24T02:16:42.486Z,1.60
2017-12-24T02:20:06.000Z,2.10
2017-12-24T02:23:29.445Z,1.30
2017-12-24T02:26:52.979Z,1.60
2017-12-24T02:30:16.455Z,1.50
2017-12-24T02:33:39.960Z,1.60
2017-12-24T02:37:03.462Z,1.80
2017-12-24T02:40:27.706Z,0.90
2017-12-24T02:43:51.182Z,1.63
2017-12-24T02:47:14.639Z,1.80
2017-12-24T02:50:38.109Z,1.70
2017-12-24T02:54:02.424Z,1.30
2017-12-24T02:57:25.899Z,1.20
2017-12-24T03:00:49.403Z,1.00
2017-12-24T03:04:13.778Z,1.17
2017-12-24T03:07:37.218Z,1.07
2017-12-24T03:11:00.760Z,1.40
2017-12-24T03:14:24.229Z,0.80
2017-12-24T03:17:47.715Z,1.60
2017-12-24T03:21:11.176Z,1.40
2017-12-24T03:24:34.617Z,1.13
2017-12-24T03:27:59.026Z,1.13
2017-12-24T03:31:23.303Z,1.37
2017-12-24T03:34:47.538Z,1.67
2017-12-24T03:38:10.999Z,0.90
2017-12-24T03:41:34.522Z,1.20
2017-12-24T03:44:57.982Z,1.00
2017-12-24T03:48:21.444Z,1.30
2017-12-24T03:51:44.925Z,1.40
2017-12-24T03:55:09.906Z,1.30
2017-12-24T03:58:33.370Z,1.40
2017-12-24T04:01:56.813Z,1.40
2017-12-24T04:05:20.274Z,0.90
2017-12-24T04:08:44.485Z,0.90
2017-12-24T04:12:07.992Z,1.47
2017-12-24T04:15:31.465Z,1.33
2017-12-24T04:18:54.950Z,1.60
2017-12-24T04:22:19.935Z,1.70
2017-12-24T04:25:43.401Z,1.30
2017-12-24T04:29:06.866Z,1.33
2017-12-24T04:32:30.321Z,1.10
2017-12-24T04:35:53.882Z,1.37
2017-12-24T04:39:18.212Z,1.10
2017-12-24T04:42:41.714Z,1.07
2017-12-24T04:46:06.769Z,1.20
2017-12-24T04:49:30.210Z,1.10
2017-12-24T04:52:54.648Z,2.20
2017-12-24T04:56:18.127Z,1.97
2017-12-24T04:59:41.782Z,1.07
2017-12-24T05:03:06.178Z,1.40
2017-12-24T05:06:29.634Z,1.07
2017-12-24T05:09:53.889Z,0.93
2017-12-24T05:13:17.514Z,1.20
2017-12-24T05:16:41.706Z,0.70
2017-12-24T05:20:05.187Z,0.90
2017-12-24T05:23:28.642Z,0.87
2017-12-24T05:26:52.225Z,1.13
2017-12-24T05:30:15.898Z,0.80
2017-12-24T05:33:39.429Z,1.03
2017-12-24T05:37:02.834Z,0.80
2017-12-24T05:40:26.323Z,0.70
2017-12-24T05:43:49.788Z,1.03
2017-12-24T05:47:13.261Z,1.17
2017-12-24T05:50:36.722Z,1.30
2017-12-24T05:54:00.170Z,1.00
2017-12-24T05:57:24.432Z,0.70
2017-12-24T06:00:48.082Z,1.00
2017-12-24T06:04:11.606Z,1.00
2017-12-24T06:07:35.829Z,3.70
2017-12-24T06:11:00.129Z,1.20
2017-12-24T06:14:23.605Z,1.03
2017-12-24T06:17:47.047Z,1.27
2017-12-24T06:21:10.530Z,1.53
2017-12-24T06:24:33.995Z,1.10
2017-12-24T06:27:57.658Z,1.00
2017-12-24T06:31:21.928Z,1.20
2017-12-24T06:34:45.450Z,1.13
2017-12-24T06:38:08.912Z,1.17
2017-12-24T06:41:32.406Z,1.63
2017-12-24T06:44:55.909Z,0.87
2017-12-24T06:48:19.371Z,1.47
2017-12-24T06:51:43.108Z,1.33
2017-12-24T06:55:06.547Z,1.50
2017-12-24T06:58:30.772Z,1.53
2017-12-24T07:01:54.264Z,1.30
2017-12-24T07:05:17.770Z,1.83
2017-12-24T07:08:41.330Z,1.10
2017-12-24T07:12:04.817Z,1.40
2017-12-24T07:15:28.293Z,1.80
2017-12-24T07:18:51.769Z,1.70
2017-12-24T07:22:16.051Z,1.83
2017-12-24T07:25:39.593Z,1.40
2017-12-24T07:29:03.109Z,1.67
2017-12-24T07:32:28.106Z,8.10
2017-12-24T07:35:51.563Z,15.50
2017-12-24T07:39:15.046Z,20.27
2017-12-24T07:42:38.553Z,18.70
2017-12-24T07:46:02.773Z,18.00
2017-12-24T07:49:26.250Z,13.73
2017-12-24T07:52:49.738Z,14.63
2017-12-24T07:56:13.252Z,16.13
2017-12-24T07:59:37.505Z,11.00
2017-12-24T08:03:00.979Z,10.27
2017-12-24T08:06:24.434Z,7.50
2017-12-24T08:09:48.034Z,15.43
2017-12-24T08:13:11.542Z,19.33
2017-12-24T08:16:35.026Z,16.13
2017-12-24T08:19:58.506Z,15.73
2017-12-24T08:23:21.983Z,17.30
2017-12-24T08:26:45.473Z,19.40
2017-12-24T08:30:08.988Z,11.93
2017-12-24T08:33:33.355Z,15.30
2017-12-24T08:36:56.826Z,12.50
2017-12-24T08:40:20.285Z,9.23
2017-12-24T08:43:43.866Z,7.00
2017-12-24T08:47:07.343Z,10.53
2017-12-24T08:50:30.828Z,12.90
2017-12-24T08:53:54.352Z,6.90
2017-12-24T08:57:17.810Z,6.63
2017-12-24T09:00:41.296Z,3.90
2017-12-24T09:04:04.762Z,6.13
2017-12-24T09:07:28.361Z,9.90
2017-12-24T09:10:51.853Z,3.60
2017-12-24T09:14:15.342Z,7.13
2017-12-24T09:17:38.848Z,4.40
2017-12-24T09:21:03.042Z,5.13
2017-12-24T09:24:26.708Z,3.73
2017-12-24T09:27:50.194Z,7.80
2017-12-24T09:31:13.663Z,3.60
2017-12-24T09:34:37.163Z,3.67
2017-12-24T09:38:00.631Z,3.13
2017-12-24T09:41:24.131Z,3.37
2017-12-24T09:44:47.756Z,2.57
2017-12-24T09:48:11.316Z,5.93
2017-12-24T09:51:35.532Z,2.40
2017-12-24T09:54:59.011Z,2.53
2017-12-24T09:58:22.540Z,1.77
2017-12-24T10:01:46.774Z,1.80
2017-12-24T10:05:10.340Z,2.43
2017-12-24T10:08:33.814Z,1.20
2017-12-24T10:11:57.278Z,2.40
2017-12-24T10:15:20.858Z,1.20
2017-12-24T10:18:44.422Z,2.20
2017-12-24T10:22:08.686Z,2.57
2017-12-24T10:25:32.947Z,12.37
2017-12-24T10:28:56.409Z,11.50
2017-12-24T10:32:19.892Z,5.50
2017-12-24T10:35:43.365Z,2.10
2017-12-24T10:39:06.949Z,5.60
2017-12-24T10:42:31.178Z,2.47
2017-12-24T10:45:54.650Z,4.40
2017-12-24T10:49:18.139Z,3.20
2017-12-24T10:52:41.633Z,4.90
2017-12-24T10:56:06.626Z,2.53
2017-12-24T10:59:30.695Z,2.97
2017-12-24T11:02:54.237Z,4.90
2017-12-24T11:06:17.741Z,4.23
2017-12-24T11:09:41.206Z,4.30
2017-12-24T11:13:04.699Z,0.93
2017-12-24T11:16:28.164Z,3.77
2017-12-24T11:19:51.635Z,3.87
2017-12-24T11:23:15.163Z,1.90
2017-12-24T11:26:39.562Z,1.17
2017-12-24T11:30:03.819Z,4.40
2017-12-24T11:33:27.310Z,0.93
2017-12-24T11:36:51.571Z,1.10
2017-12-24T11:40:15.035Z,4.50
2017-12-24T11:43:38.505Z,1.77
2017-12-24T11:47:02.002Z,2.30
2017-12-24T11:50:26.499Z,2.63
2017-12-24T11:53:49.972Z,4.03
2017-12-24T11:57:14.954Z,1.80
2017-12-24T12:00:38.447Z,2.70
2017-12-24T12:04:03.414Z,2.20
2017-12-24T12:07:26.934Z,5.10
2017-12-24T12:10:51.908Z,3.43
2017-12-24T12:14:15.513Z,3.17
2017-12-24T12:17:39.758Z,4.00
2017-12-24T12:21:03.321Z,3.80
2017-12-24T12:24:27.615Z,2.97
2017-12-24T12:27:51.853Z,2.40
2017-12-24T12:31:16.536Z,2.40
2017-12-24T12:34:40.020Z,3.70
2017-12-24T12:38:03.512Z,1.90
2017-12-24T12:41:27.750Z,3.43
2017-12-24T12:44:51.223Z,4.37
2017-12-24T12:48:14.679Z,1.67
2017-12-24T12:51:38.226Z,5.90
2017-12-24T12:55:02.521Z,3.90
2017-12-24T12:58:26.758Z,5.30
2017-12-24T13:01:50.255Z,4.00
2017-12-24T13:05:13.765Z,1.90
2017-12-24T13:08:38.026Z,2.70
2017-12-24T13:12:01.606Z,3.90
2017-12-24T13:15:25.083Z,2.67
2017-12-24T13:18:49.334Z,3.70
2017-12-24T13:22:12.903Z,4.33
2017-12-24T13:25:36.407Z,3.83
2017-12-24T13:28:59.933Z,4.87
2017-12-24T13:32:23.589Z,3.90
2017-12-24T13:35:47.072Z,3.20
2017-12-24T13:39:10.589Z,3.53
2017-12-24T13:42:34.068Z,4.23
2017-12-24T13:45:57.573Z,3.10
2017-12-24T13:49:21.820Z,11.00
2017-12-24T13:52:45.309Z,19.93
2017-12-24T13:56:10.291Z,11.90
2017-12-24T13:59:33.878Z,10.57
2017-12-24T14:02:57.348Z,8.43
2017-12-24T14:06:20.818Z,5.50
2017-12-24T14:09:44.370Z,9.47
2017-12-24T14:13:07.829Z,14.20
2017-12-24T14:16:31.656Z,11.10
2017-12-24T14:19:55.174Z,6.67
2017-12-24T14:23:19.379Z,10.83
2017-12-24T14:26:42.864Z,7.53
2017-12-24T14:30:06.336Z,8.00
2017-12-24T14:33:29.909Z,8.37
2017-12-24T14:36:53.552Z,7.23
2017-12-24T14:40:17.011Z,5.23
2017-12-24T14:43:40.477Z,5.80
2017-12-24T14:47:04.839Z,5.33
2017-12-24T14:50:28.342Z,25.03
2017-12-24T14:53:52.605Z,20.63
2017-12-24T14:57:16.082Z,17.60
2017-12-24T15:00:40.327Z,15.10
2017-12-24T15:04:03.810Z,17.73
2017-12-24T15:07:27.306Z,20.10
2017-12-24T15:10:50.780Z,15.17
2017-12-24T15:14:15.168Z,16.10
2017-12-24T15:17:38.647Z,12.60
2017-12-24T15:21:02.140Z,11.90
2017-12-24T15:24:26.374Z,10.90
2017-12-24T15:27:49.977Z,14.80
2017-12-24T15:31:13.459Z,8.80
2017-12-24T15:34:37.079Z,8.67
2017-12-24T15:38:01.299Z,7.20
2017-12-24T15:41:24.760Z,11.60
2017-12-24T15:44:48.221Z,7.37
2017-12-24T15:48:11.674Z,7.50
2017-12-24T15:51:35.156Z,9.33
2017-12-24T15:54:58.766Z,5.80
2017-12-24T15:58:22.215Z,7.73
2017-12-24T16:01:45.681Z,6.87
2017-12-24T16:05:09.165Z,6.00
2017-12-24T16:08:32.651Z,6.67
2017-12-24T16:11:56.239Z,5.23
2017-12-24T16:15:19.714Z,4.90
2017-12-24T16:18:43.194Z,7.93
2017-12-24T16:22:07.498Z,5.20
2017-12-24T16:25:31.718Z,6.83
2017-12-24T16:28:55.310Z,7.17
2017-12-24T16:32:18.873Z,4.33
2017-12-24T16:35:42.503Z,5.00
2017-12-24T16:39:06.758Z,4.30
2017-12-24T16:42:30.193Z,6.30
2017-12-24T16:45:53.679Z,4.83
2017-12-24T16:49:17.994Z,4.43
2017-12-24T16:52:41.491Z,6.57
2017-12-24T16:56:04.990Z,8.07
2017-12-24T16:59:28.453Z,4.60
2017-12-24T17:02:52.698Z,4.37
2017-12-24T17:06:16.197Z,3.80
2017-12-24T17:09:39.642Z,4.20
2017-12-24T17:13:03.115Z,4.50
2017-12-24T17:16:26.611Z,2.90
2017-12-24T17:19:50.075Z,2.80
2017-12-24T17:23:13.807Z,2.77
2017-12-24T17:26:37.271Z,3.17
2017-12-24T17:30:00.748Z,3.93
2017-12-24T17:33:24.239Z,3.97
2017-12-24T17:36:47.701Z,2.50
2017-12-24T17:40:11.192Z,3.20
2017-12-24T17:43:34.842Z,2.33
2017-12-24T17:46:58.327Z,3.00
2017-12-24T17:50:21.808Z,2.03
2017-12-24T17:53:45.285Z,2.43
2017-12-24T17:57:08.751Z,3.33
2017-12-24T18:00:32.237Z,4.17
2017-12-24T18:03:56.513Z,2.20
2017-12-24T18:07:20.018Z,2.93
2017-12-24T18:10:44.262Z,2.40
2017-12-24T18:14:07.721Z,2.10
2017-12-24T18:17:31.246Z,2.43
2017-12-24T18:20:55.491Z,2.13
2017-12-24T18:24:18.973Z,2.13
2017-12-24T18:27:42.452Z,2.17
2017-12-24T18:31:06.764Z,3.70
2017-12-24T18:34:30.236Z,2.40
2017-12-24T18:37:53.694Z,2.20
2017-12-24T18:41:17.153Z,2.47
2017-12-24T18:44:40.648Z,2.37
2017-12-24T18:48:04.115Z,2.60
2017-12-24T18:51:27.619Z,2.00
2017-12-24T18:54:51.171Z,2.20
2017-12-24T18:58:14.646Z,2.37
2017-12-24T19:01:38.167Z,1.90
2017-12-24T19:05:01.693Z,2.77
2017-12-24T19:08:25.155Z,2.00
2017-12-24T19:11:48.634Z,2.03
2017-12-24T19:15:12.090Z,1.77
2017-12-24T19:18:35.571Z,1.97
2017-12-24T19:22:00.737Z,1.63
2017-12-24T19:25:24.218Z,1.60
2017-12-24T19:28:47.705Z,1.90
2017-12-24T19:32:11.190Z,2.07
2017-12-24T19:35:34.927Z,1.70
2017-12-24T19:38:58.408Z,1.50
2017-12-24T19:42:21.960Z,1.90
2017-12-24T19:45:45.425Z,2.10
2017-12-24T19:49:09.665Z,1.77
2017-12-24T19:52:33.151Z,2.00
2017-12-24T19:55:56.610Z,1.30
2017-12-24T19:59:20.098Z,1.83
2017-12-24T20:02:43.608Z,1.40
2017-12-24T20:06:07.841Z,1.30
2017-12-24T20:09:31.445Z,1.63
2017-12-24T20:12:54.995Z,1.47
2017-12-24T20:16:18.478Z,1.73
2017-12-24T20:19:44.268Z,2.50
2017-12-24T20:23:08.517Z,1.80
2017-12-24T20:26:32.121Z,9.40
2017-12-24T20:29:56.410Z,14.40
2017-12-24T20:33:20.743Z,7.67
2017-12-24T20:36:44.265Z,12.20
2017-12-24T20:40:08.679Z,11.50
2017-12-24T20:43:32.306Z,11.23
2017-12-24T20:46:55.827Z,11.07
2017-12-24T20:50:19.333Z,9.13
2017-12-24T20:53:42.837Z,10.17
2017-12-24T20:57:06.330Z,8.67
2017-12-24T21:00:30.584Z,10.50
2017-12-24T21:03:54.078Z,8.90
2017-12-24T21:07:18.365Z,8.70
2017-12-24T21:10:42.713Z,7.80
2017-12-24T21:14:06.225Z,7.70
2017-12-24T21:17:29.934Z,11.30
2017-12-24T21:20:54.285Z,7.57
2017-12-24T21:24:17.740Z,10.40
2017-12-24T21:27:41.236Z,10.17
2017-12-24T21:31:04.730Z,7.33
2017-12-24T21:34:28.963Z,7.73
2017-12-24T21:37:52.615Z,9.00
2017-12-24T21:41:16.103Z,6.20
2017-12-24T21:44:39.669Z,5.70
2017-12-24T21:48:03.164Z,8.87
2017-12-24T21:51:26.618Z,6.37
2017-12-24T21:54:50.098Z,6.43
2017-12-24T21:58:13.628Z,5.87
2017-12-24T22:01:37.877Z,7.90
2017-12-24T22:05:01.345Z,7.30
2017-12-24T22:08:24.866Z,11.23
2017-12-24T22:11:48.319Z,6.30
2017-12-24T22:15:12.576Z,6.70
2017-12-24T22:18:36.127Z,5.93
2017-12-24T22:21:59.796Z,6.63
2017-12-24T22:25:23.298Z,8.03
2017-12-24T22:28:46.855Z,4.60
2017-12-24T22:32:10.405Z,7.40
2017-12-24T22:35:34.045Z,6.77
2017-12-24T22:38:57.622Z,5.20
2017-12-24T22:42:21.091Z,7.63
2017-12-24T22:45:44.596Z,4.77
2017-12-24T22:49:08.971Z,5.40
2017-12-24T22:52:33.333Z,7.23
2017-12-24T22:55:56.846Z,5.73
2017-12-24T22:59:21.090Z,3.80
2017-12-24T23:02:44.564Z,4.80
2017-12-24T23:06:08.051Z,3.23
2017-12-24T23:09:31.642Z,4.73
2017-12-24T23:12:55.865Z,4.30
2017-12-24T23:16:19.412Z,4.03
2017-12-24T23:19:43.671Z,4.40
2017-12-24T23:23:07.117Z,5.07
2017-12-24T23:26:30.620Z,3.57
2017-12-24T23:29:54.115Z,4.63
2017-12-24T23:33:18.458Z,4.30
2017-12-24T23:36:42.761Z,4.30
2017-12-24T23:40:06.237Z,4.77
2017-12-24T23:43:29.915Z,3.60
2017-12-24T23:46:54.211Z,3.17
2017-12-24T23:50:17.688Z,2.80
2017-12-24T23:53:41.187Z,2.60
2017-12-24T23:57:04.643Z,2.87
